• Join FlightAware (Why Join?)
  • Login
  • US Flag 
02:53AM EDT


 

Airport Tracker/Info


-or-


 

Live Flight TrackerFlight Track Log ✈ N149GK ✈ 08-May-2013 ✈ KPDK - KJAX

Flight Track Log - Related Links

Times and Time Zones

All times are in EDT time to prevent confusion due to time zone crossing. See the N149GK flight status page for this flight to view local times or setup timezone preferences in your user account.

Time Position Orientation Groundspeed Altitude Reporting Facility
EDT Latitude Longitude Course Direction KTS MPH feet Rate Location/Type
05:07PM 33.9167 -84.3333 231° Southwest 261 300 6,000  Level Atlanta TRACON
05:08PM 33.8333 -84.3667 198° South 292 336 6,000  Level Atlanta TRACON
05:09PM 33.7667 -84.4000 203° Southwest 291 335 6,000  Level Atlanta TRACON
05:10PM 33.6833 -84.3833 171° South 310 357 6,000 60 Level Atlanta TRACON
05:11PM 33.4697 -83.9753 175° South  Level Estimated
05:11PM 33.6000 -84.3833 180° South 339 390 6,200  Level Atlanta TRACON
05:12PM 33.5167 -84.3833 180° South 307 353 8,200 1,620 Climbing Atlanta TRACON
05:13PM 33.4017 -84.2950 147° Southeast 326 375 10,300 1,260 Climbing Atlanta Center
05:14PM 33.3244 -84.2278 144° Southeast 326 375 11,400 1,140 Climbing Atlanta Center
05:15PM 33.2514 -84.1581 141° Southeast 337 388 12,600 1,140 Climbing Atlanta Center
05:16PM 33.1786 -84.0836 139° Southeast 345 397 13,700 960 Climbing Atlanta Center
05:17PM 33.1033 -84.0092 140° Southeast 350 403 14,600 840 Climbing Atlanta Center
05:18PM 33.0322 -83.9422 142° Southeast 350 403 15,400 840 Climbing Atlanta Center
05:19PM 32.9531 -83.8656 141° Southeast 350 403 16,300 900 Climbing Atlanta Center
05:20PM 32.8736 -83.7892 141° Southeast 355 409 17,300 1,080 Climbing Atlanta Center
05:21PM 32.7961 -83.7150 141° Southeast 361 415 18,500 1,320 Climbing Atlanta Center
05:22PM 32.7208 -83.6389 140° Southeast 361 415 20,000 2,160 Climbing Atlanta Center
05:23PM 32.6494 -83.5700 141° Southeast 349 402 22,900 600 Climbing Atlanta Center
05:27PM 32.3247 -83.2589 141° Southeast 385 443 23,000  Climbing Jacksonville Center
05:28PM 32.2392 -83.1750 140° Southeast 385 443 23,000  Level Jacksonville Center
05:29PM 32.1539 -83.0914 140° Southeast 390 449 23,000  Level Jacksonville Center
05:30PM 32.0664 -83.0103 142° Southeast 395 455 23,000  Level Jacksonville Center
05:31PM 31.9808 -82.9269 140° Southeast 395 455 23,000  Level Jacksonville Center
05:32PM 31.8950 -82.8436 140° Southeast 395 455 23,000  Level Jacksonville Center
05:33PM 31.8053 -82.7656 144° Southeast 401 461 23,000  Level Jacksonville Center
05:34PM 31.7111 -82.7044 151° Southeast 395 455 23,000 -60 Level Jacksonville Center
05:35PM 31.6150 -82.6436 152° Southeast 395 455 22,900 -840 Descending Jacksonville Center
05:36PM 31.5211 -82.5806 150° Southeast 395 455 21,400 -1,500 Descending Jacksonville Center
05:37PM 31.4311 -82.5225 151° Southeast 390 449 20,000 -900 Descending Jacksonville Center
05:38PM 31.3264 -82.4619 154° Southeast 379 436 19,600 -1,200 Descending Jacksonville Center
05:39PM 31.2364 -82.3994 149° Southeast 379 436 17,600 -2,040 Descending Jacksonville Center
05:40PM 31.1464 -82.3439 152° Southeast 372 428 15,600 -1,980 Descending Jacksonville Center
05:41PM 31.1044 -82.3150 149° Southeast 360 414 14,600 -1,920 Descending Jacksonville Center
05:41PM 31.0606 -82.2886 153° Southeast 367 422 13,700 -1,980 Descending Jacksonville Center
05:41PM 31.0314 -82.2669 148° Southeast 351 404 13,000 -1,740 Descending Jacksonville Center
05:42PM 30.9789 -82.2336 151° Southeast 361 415 12,000 -1,020 Descending Jacksonville Center
05:43PM 30.9558 -82.2044 133° Southeast 340 391 12,000 -1,320 Level Jacksonville Center
05:43PM 30.9117 -82.1564 137° Southeast 350 403 10,700 -1,920 Descending Jacksonville Center
05:44PM 30.8928 -82.1300 130° Southeast 327 376 10,100 -720 Descending Jacksonville Center
05:44PM 30.8464 -82.0819 138° Southeast 338 389 10,000 -120 Descending Jacksonville Center
05:44PM 30.8297 -82.0603 132° Southeast 327 376 10,000 -300 Level Jacksonville Center
05:45PM 30.7811 -82.0075 137° Southeast 326 375 9,700 -1,380 Descending Jacksonville Center
05:45PM 30.7644 -81.9883 135° Southeast 325 374 8,600 -3,540 Descending Jacksonville Center
05:46PM 30.7181 -81.9381 137° Southeast 321 369 6,200 -3,600 Descending Jacksonville Center
05:46PM 30.7011 -81.9164 132° Southeast 301 346 5,000 -2,220 Descending Jacksonville Center
05:47PM 30.6633 -81.8733 136° Southeast 303 349 4,000 -1,380 Descending Jacksonville Center
05:47PM 30.6486 -81.8444 121° Southeast 294 338 3,600 -1,020 Descending Jacksonville Center
05:48PM 30.6356 -81.7844 104° East 290 334 3,000 480 Descending Jacksonville Center
05:49PM 30.6289 -81.7458 101° East 273 314 4,200 1,080 Climbing Jacksonville Center
05:49PM 30.6139 -81.7050 113° Southeast 271 312 4,100 -180 Descending Jacksonville Center
05:50PM 30.6092 -81.6544 96° East 256 295 4,000 -120 Descending Jacksonville Center
05:50PM 30.6006 -81.6231 108° East 261 300 4,000  Level Jacksonville Center
05:51PM 30.5917 -81.5797 103° East 279 321 4,000 -720 Level Jacksonville Center
05:52PM 30.5247 -81.5661 170° South 210 242 3,000 -540 Descending Jacksonville Center
05:53PM 30.4789 -81.5619 176° South 163 188 3,000 -180 Level Jacksonville Center
05:54PM 30.4497 -81.5867 216° Southwest 133 153 2,700 -840 Descending Jacksonville Center
05:55PM 30.4481 -81.6275 267° West 133 153 1,300 -1,080 Descending Jacksonville Center
05:56PM 30.4653 -81.6633 299° West 125 144 600 -720 Descending Jacksonville Center
05:58PM 30.4833 -81.6833 311° West  Level FlightAware Approximate
06:05PM 30.4941 -81.6879 311° West  Level Estimated